Time;durP1;ratioP1;P1;durP2;ratioP2;P2;SDS_P1;SDS_P2;PMS_P1;PMS_P2;Temp;Humidity;BMP_temperature;BMP_pressure;BME280_temperature;BME280_humidity;BME280_pressure;Samples;Min_cycle;Max_cycle;Signal;HPM_P1;HPM_P2
2021/12/06 05:09:01;;;;;;;13.60;9.15;;;;;;;0.75;100.00;99377.00;5282619;33;33428;-88
2021/12/06 05:12:07;;;;;;;13.80;9.50;;;;;;;0.71;100.00;99388.88;5288628;33;34044;-89
2021/12/06 05:15:12;;;;;;;13.27;8.77;;;;;;;0.78;100.00;99390.81;5288370;33;34684;-84
2021/12/06 05:18:16;;;;;;;15.10;10.23;;;;;;;0.79;100.00;99403.09;5288624;33;34141;-84
2021/12/06 05:21:19;;;;;;;14.38;9.82;;;;;;;0.85;100.00;99401.72;5293601;33;33869;-85
2021/12/06 05:24:21;;;;;;;14.07;9.77;;;;;;;0.89;100.00;99400.44;5288963;33;35067;-85
2021/12/06 05:27:28;;;;;;;14.20;9.38;;;;;;;0.89;100.00;99405.75;5287918;33;35223;-85
2021/12/06 05:30:33;;;;;;;15.27;10.20;;;;;;;0.88;100.00;99406.72;5288092;33;33978;-85
2021/12/06 05:33:37;;;;;;;16.42;10.60;;;;;;;0.82;100.00;99409.91;5288018;33;33659;-84
2021/12/06 05:36:40;;;;;;;14.80;9.55;;;;;;;0.94;100.00;99407.94;5287906;33;34035;-85
2021/12/06 05:39:43;;;;;;;15.02;9.90;;;;;;;0.92;100.00;99413.41;5288279;33;34473;-85
2021/12/06 05:42:52;;;;;;;16.42;10.98;;;;;;;0.98;100.00;99409.38;5287614;33;34848;-85
2021/12/06 05:45:55;;;;;;;16.70;10.52;;;;;;;0.87;100.00;99411.16;5287308;33;34232;-85
2021/12/06 05:48:57;;;;;;;17.42;11.57;;;;;;;0.88;100.00;99412.84;5287415;33;34049;-85
2021/12/06 05:52:01;;;;;;;17.42;11.45;;;;;;;0.97;100.00;99410.34;5287551;33;34408;-85
2021/12/06 05:55:06;;;;;;;19.08;11.80;;;;;;;0.95;100.00;99412.28;5287261;33;34871;-85
2021/12/06 05:58:12;;;;;;;20.45;12.40;;;;;;;0.90;100.00;99418.00;5287733;33;34645;-85
2021/12/06 06:01:15;;;;;;;18.15;11.85;;;;;;;0.90;100.00;99418.00;5296793;33;34897;-84
2021/12/06 06:04:23;;;;;;;18.40;12.20;;;;;;;0.95;100.00;99414.94;5300553;33;34152;-85
2021/12/06 06:07:25;;;;;;;20.23;12.95;;;;;;;0.88;100.00;99418.16;5297150;33;34288;-83
2021/12/06 06:10:31;;;;;;;20.65;12.57;;;;;;;0.81;100.00;99417.03;5274813;33;34488;-84
2021/12/06 06:13:34;;;;;;;20.77;12.70;;;;;;;0.86;100.00;99417.44;5273636;33;34706;-84
2021/12/06 06:16:47;;;;;;;19.62;12.00;;;;;;;0.85;100.00;99426.38;5287552;33;33672;-86
2021/12/06 06:19:56;;;;;;;23.27;13.62;;;;;;;0.94;100.00;99429.16;5284820;33;33939;-86
2021/12/06 06:23:00;;;;;;;19.55;12.37;;;;;;;0.99;100.00;99434.88;5272253;33;34239;-84
2021/12/06 06:26:02;;;;;;;21.15;13.20;;;;;;;1.08;100.00;99439.34;5272189;33;34283;-84
2021/12/06 06:29:06;;;;;;;21.37;13.68;;;;;;;1.13;100.00;99453.84;5274797;33;33513;-84
2021/12/06 06:32:09;;;;;;;20.12;13.60;;;;;;;1.17;100.00;99448.25;5272613;33;34111;-84
2021/12/06 06:35:13;;;;;;;24.37;14.77;;;;;;;1.21;100.00;99450.50;5285550;33;33930;-84
2021/12/06 06:38:17;;;;;;;20.58;12.98;;;;;;;1.18;100.00;99444.66;5272604;33;33619;-84
2021/12/06 06:41:21;;;;;;;22.35;13.48;;;;;;;1.25;100.00;99456.34;5276574;33;33823;-84
2021/12/06 06:44:23;;;;;;;23.27;14.07;;;;;;;1.17;100.00;99465.03;5279046;33;33679;-84
2021/12/06 06:47:26;;;;;;;21.27;13.52;;;;;;;1.20;100.00;99458.59;5279494;33;33698;-84
2021/12/06 06:50:29;;;;;;;21.30;13.95;;;;;;;1.18;100.00;99469.34;5282480;33;34042;-84
2021/12/06 06:53:32;;;;;;;21.65;13.07;;;;;;;1.12;100.00;99485.81;5277637;33;33886;-88
2021/12/06 06:56:36;;;;;;;24.08;13.65;;;;;;;1.28;100.00;99477.28;5276172;33;35015;-88
2021/12/06 06:59:39;;;;;;;23.17;13.15;;;;;;;1.19;100.00;99475.47;5279523;33;34076;-88
2021/12/06 07:02:43;;;;;;;22.02;14.48;;;;;;;1.23;100.00;99484.81;5282818;33;34465;-85
2021/12/06 07:05:48;;;;;;;21.80;12.68;;;;;;;1.28;100.00;99503.78;5280833;33;32579;-84
2021/12/06 07:08:54;;;;;;;21.65;12.75;;;;;;;1.40;100.00;99501.84;5280689;33;34651;-84
2021/12/06 07:12:01;;;;;;;22.95;14.00;;;;;;;1.32;100.00;99508.69;5286875;33;33458;-86
2021/12/06 07:15:04;;;;;;;25.05;13.70;;;;;;;1.32;100.00;99506.03;5281458;33;33547;-87
2021/12/06 07:18:12;;;;;;;22.37;13.18;;;;;;;1.44;100.00;99504.09;5279491;33;34767;-87
2021/12/06 07:21:15;;;;;;;25.80;13.35;;;;;;;1.39;100.00;99513.44;5278454;33;33752;-85
2021/12/06 07:24:18;;;;;;;21.95;12.85;;;;;;;1.50;100.00;99506.16;5280491;33;34666;-85
2021/12/06 07:27:21;;;;;;;23.83;13.93;;;;;;;1.45;100.00;99518.16;5282880;33;33829;-85
2021/12/06 07:30:24;;;;;;;22.62;12.82;;;;;;;1.58;100.00;99527.53;5280771;33;34089;-84
2021/12/06 07:33:28;;;;;;;24.27;13.27;;;;;;;1.55;100.00;99534.91;5275207;33;34491;-85
2021/12/06 07:36:31;;;;;;;24.23;13.40;;;;;;;1.50;100.00;99539.81;5279149;33;33951;-84
2021/12/06 07:39:34;;;;;;;21.33;13.13;;;;;;;1.59;100.00;99531.84;5280180;33;35147;-85
2021/12/06 07:42:38;;;;;;;20.80;12.55;;;;;;;1.68;100.00;99526.66;5278877;33;34149;-84
2021/12/06 07:45:40;;;;;;;24.42;13.80;;;;;;;1.69;100.00;99526.50;5279010;33;33899;-85
2021/12/06 07:48:43;;;;;;;25.05;14.00;;;;;;;1.65;100.00;99522.47;5280539;33;34693;-85
2021/12/06 07:51:46;;;;;;;22.37;13.55;;;;;;;1.74;100.00;99532.25;5277366;33;34663;-85
2021/12/06 07:54:49;;;;;;;21.95;13.90;;;;;;;1.83;100.00;99530.53;5285913;33;32791;-85
2021/12/06 07:57:56;;;;;;;22.55;12.93;;;;;;;1.79;100.00;99535.31;5286124;33;34024;-85
2021/12/06 08:00:59;;;;;;;25.67;14.98;;;;;;;1.80;100.00;99538.78;5279559;33;33905;-85
2021/12/06 08:04:02;;;;;;;28.45;16.02;;;;;;;1.78;100.00;99536.31;5293097;33;34125;-85
2021/12/06 08:07:05;;;;;;;30.48;16.42;;;;;;;1.77;100.00;99541.72;5286706;33;34248;-84
2021/12/06 08:10:08;;;;;;;27.45;15.98;;;;;;;1.71;100.00;99543.13;5280974;33;34017;-85
2021/12/06 08:13:15;;;;;;;29.83;16.80;;;;;;;1.85;100.00;99544.53;5280437;33;35398;-84
2021/12/06 08:16:21;;;;;;;28.92;17.08;;;;;;;1.74;100.00;99545.50;5276279;33;33801;-85
2021/12/06 08:19:24;;;;;;;30.25;17.02;;;;;;;1.75;100.00;99539.22;5279505;33;33882;-85
2021/12/06 08:22:26;;;;;;;33.00;17.35;;;;;;;1.80;100.00;99546.75;5280906;33;33525;-85
2021/12/06 08:25:29;;;;;;;32.28;17.60;;;;;;;1.81;100.00;99551.94;5283640;33;34257;-85
2021/12/06 08:28:34;;;;;;;32.83;17.98;;;;;;;1.68;100.00;99556.69;5279975;33;35173;-85
2021/12/06 08:31:37;;;;;;;35.30;18.12;;;;;;;1.77;100.00;99558.50;5278068;33;33983;-85
2021/12/06 08:34:41;;;;;;;34.75;18.27;;;;;;;1.67;100.00;99570.94;5285761;33;34331;-85
2021/12/06 08:37:46;;;;;;;37.03;19.67;;;;;;;1.62;100.00;99570.50;5293168;33;34401;-85
2021/12/06 08:40:51;;;;;;;37.92;18.33;;;;;;;1.65;100.00;99572.06;5286662;33;34046;-85
2021/12/06 08:43:55;;;;;;;35.67;19.20;;;;;;;1.72;100.00;99571.34;5286577;33;34031;-85
2021/12/06 08:46:58;;;;;;;37.83;19.83;;;;;;;1.70;100.00;99575.97;5306271;33;33708;-85
2021/12/06 08:50:02;;;;;;;38.17;19.35;;;;;;;1.76;100.00;99575.41;5322548;28;35487;-86
2021/12/06 08:53:05;;;;;;;36.65;19.62;;;;;;;1.86;100.00;99570.06;5270994;33;34379;-89
2021/12/06 08:56:07;;;;;;;38.15;20.02;;;;;;;1.90;100.00;99573.28;5272482;33;35340;-89
2021/12/06 08:59:11;;;;;;;40.88;21.37;;;;;;;1.90;100.00;99582.09;5267380;33;34695;-90
2021/12/06 09:02:14;;;;;;;36.75;19.73;;;;;;;1.94;100.00;99578.16;5271448;33;33984;-90
2021/12/06 09:05:42;;;;;;;40.58;21.12;;;;;;;1.98;100.00;99582.19;5283359;33;34039;-86
2021/12/06 09:08:45;;;;;;;39.10;21.65;;;;;;;1.87;100.00;99581.53;5252551;33;34675;-86
2021/12/06 09:11:49;;;;;;;41.00;21.37;;;;;;;2.01;100.00;99578.44;5264286;33;34302;-85
2021/12/06 09:14:57;;;;;;;39.10;20.20;;;;;;;2.11;100.00;99581.09;5261332;33;33858;-85
2021/12/06 09:18:00;;;;;;;37.75;19.98;;;;;;;2.10;100.00;99572.25;5288414;33;33915;-85
2021/12/06 09:21:07;;;;;;;36.05;19.40;;;;;;;2.14;100.00;99578.12;5280785;33;33977;-84
2021/12/06 09:24:17;;;;;;;36.38;18.95;;;;;;;2.15;100.00;99575.31;5259940;33;33973;-84
2021/12/06 09:27:20;;;;;;;36.53;20.15;;;;;;;2.17;100.00;99562.75;5267434;33;34000;-85
2021/12/06 09:30:27;;;;;;;33.58;18.75;;;;;;;2.20;100.00;99553.66;5253246;33;34812;-84
2021/12/06 09:33:32;;;;;;;40.22;20.95;;;;;;;2.24;100.00;99544.41;5265437;33;34103;-84
2021/12/06 09:36:36;;;;;;;31.73;18.37;;;;;;;2.45;100.00;99544.19;5255378;33;33819;-84
2021/12/06 09:39:39;;;;;;;32.13;17.55;;;;;;;2.50;100.00;99548.09;5260423;33;34683;-85
2021/12/06 09:42:44;;;;;;;30.77;17.10;;;;;;;2.61;100.00;99552.37;5258635;33;34574;-84
2021/12/06 09:45:47;;;;;;;30.48;17.02;;;;;;;2.65;100.00;99542.28;5277370;33;34284;-84
2021/12/06 09:48:51;;;;;;;28.87;17.60;;;;;;;2.65;100.00;99536.97;5262944;33;34051;-84
2021/12/06 09:51:57;;;;;;;32.28;17.77;;;;;;;2.70;100.00;99537.38;5262217;33;35271;-84
2021/12/06 09:55:00;;;;;;;27.87;16.92;;;;;;;2.81;100.00;99546.94;5252396;33;163934;-84
2021/12/06 09:58:05;;;;;;;26.70;15.80;;;;;;;3.10;99.39;99550.28;5269506;33;34008;-85
2021/12/06 10:01:15;;;;;;;27.77;16.17;;;;;;;3.26;98.01;99538.97;5268714;33;33786;-85
2021/12/06 10:04:20;;;;;;;26.55;16.12;;;;;;;3.40;99.04;99535.78;5273487;33;34706;-85
2021/12/06 10:07:26;;;;;;;24.25;14.80;;;;;;;3.64;96.94;99534.31;5258194;33;34884;-85
2021/12/06 10:10:30;;;;;;;23.55;14.52;;;;;;;3.93;95.91;99536.69;5254954;33;34738;-85
2021/12/06 10:13:33;;;;;;;23.45;13.75;;;;;;;4.26;92.46;99526.25;5255818;33;34392;-85
2021/12/06 10:16:38;;;;;;;22.42;13.68;;;;;;;4.20;93.58;99533.03;5266511;33;34930;-86
2021/12/06 10:19:43;;;;;;;21.40;13.32;;;;;;;4.15;93.91;99523.84;5273965;33;34155;-85
2021/12/06 10:22:46;;;;;;;20.95;12.95;;;;;;;4.29;92.60;99509.94;5264501;33;33549;-89
2021/12/06 10:25:52;;;;;;;21.60;13.48;;;;;;;4.25;92.22;99516.59;5264097;33;33736;-90
2021/12/06 10:29:10;;;;;;;20.73;12.15;;;;;;;4.20;93.64;99508.22;5270252;33;33749;-86
2021/12/06 10:32:16;;;;;;;21.33;13.52;;;;;;;4.21;92.72;99505.41;5271003;33;33958;-85
2021/12/06 10:35:19;;;;;;;20.20;12.77;;;;;;;4.43;93.25;99513.84;5269345;33;34432;-85
2021/12/06 10:38:28;;;;;;;21.35;12.93;;;;;;;4.60;90.62;99507.59;5266957;33;33773;-86
2021/12/06 10:41:33;;;;;;;18.98;12.63;;;;;;;4.66;90.77;99514.94;5264827;33;35299;-85
2021/12/06 10:44:36;;;;;;;19.75;12.52;;;;;;;4.49;91.51;99526.53;5264090;33;33526;-86
2021/12/06 10:47:40;;;;;;;17.17;11.93;;;;;;;4.62;91.56;99534.94;5264375;33;33628;-86
2021/12/06 10:51:05;;;;;;;17.65;11.63;;;;;;;4.86;89.15;99554.69;5269412;33;33907;-85
2021/12/06 10:54:19;;;;;;;18.58;12.00;;;;;;;4.82;89.31;99561.31;5272602;33;34392;-86
2021/12/06 10:57:21;;;;;;;20.77;12.18;;;;;;;4.64;90.82;99572.91;5259932;33;35355;-86
2021/12/06 11:00:33;;;;;;;20.60;12.77;;;;;;;4.57;90.73;99576.38;5259081;33;33594;-85
2021/12/06 11:03:42;;;;;;;18.90;12.10;;;;;;;4.29;91.34;99588.03;5268380;33;34288;-86
2021/12/06 11:06:48;;;;;;;21.92;12.63;;;;;;;4.13;92.33;99585.28;5258832;33;33996;-85
2021/12/06 11:09:52;;;;;;;22.65;13.00;;;;;;;4.04;91.62;99584.38;5262019;33;34098;-85
2021/12/06 11:13:23;;;;;;;20.90;13.02;;;;;;;4.07;92.39;99589.41;5263263;33;33960;-85
2021/12/06 11:16:31;;;;;;;17.08;11.77;;;;;;;4.10;92.51;99574.94;5265001;33;35203;-85
2021/12/06 11:19:34;;;;;;;18.35;11.63;;;;;;;4.11;92.16;99584.59;5264565;33;33845;-85
2021/12/06 11:22:38;;;;;;;18.17;11.93;;;;;;;4.09;92.25;99587.44;5266131;33;35361;-89
2021/12/06 11:25:41;;;;;;;20.05;12.48;;;;;;;4.08;92.71;99603.53;5267315;33;35410;-90
2021/12/06 11:28:44;;;;;;;19.80;12.43;;;;;;;4.00;92.63;99608.81;5259791;33;36771;-87
2021/12/06 11:32:01;;;;;;;19.15;11.73;;;;;;;4.01;93.25;99614.00;5272346;33;34016;-86
2021/12/06 11:35:13;;;;;;;18.67;12.65;;;;;;;3.83;93.59;99611.34;5270170;33;34099;-86
2021/12/06 11:38:18;;;;;;;19.58;12.40;;;;;;;3.73;93.94;99618.56;5270615;33;34653;-86
2021/12/06 11:41:21;;;;;;;18.35;11.82;;;;;;;3.75;94.13;99615.78;5263288;33;34121;-85
2021/12/06 11:44:30;;;;;;;16.77;11.77;;;;;;;3.82;94.24;99612.31;5263044;33;33961;-86
2021/12/06 11:47:33;;;;;;;19.48;11.90;;;;;;;3.81;94.35;99618.66;5261125;33;34684;-85
2021/12/06 11:50:47;;;;;;;19.00;12.00;;;;;;;3.84;93.56;99617.50;5263225;33;34739;-85
2021/12/06 11:53:54;;;;;;;18.98;12.05;;;;;;;3.83;93.74;99611.34;5259112;33;34052;-86
2021/12/06 11:56:57;;;;;;;18.00;11.70;;;;;;;3.83;93.11;99616.69;5267542;33;34908;-85
2021/12/06 12:00:03;;;;;;;17.35;11.73;;;;;;;3.70;93.78;99620.72;5268072;33;34636;-85
2021/12/06 12:03:08;;;;;;;20.15;11.98;;;;;;;3.65;94.04;99615.81;5269232;33;34102;-85
2021/12/06 12:06:23;;;;;;;18.65;12.20;;;;;;;3.72;93.89;99614.25;5268733;33;34045;-85
2021/12/06 12:09:32;;;;;;;19.83;12.13;;;;;;;3.81;93.44;99621.31;5294165;33;34202;-85
2021/12/06 12:12:35;;;;;;;16.50;11.12;;;;;;;3.81;92.78;99618.66;5268668;33;33843;-85
2021/12/06 12:15:38;;;;;;;17.10;11.20;;;;;;;3.81;92.78;99617.81;5266649;33;33983;-85
2021/12/06 12:18:41;;;;;;;17.70;11.52;;;;;;;3.93;92.98;99595.28;5262711;33;35156;-86
2021/12/06 12:21:44;;;;;;;15.90;10.73;;;;;;;3.94;92.35;99599.59;5266172;33;33963;-86
2021/12/06 12:24:51;;;;;;;17.00;10.90;;;;;;;4.15;92.09;99587.78;5261949;33;34737;-85
2021/12/06 12:28:08;;;;;;;17.40;10.50;;;;;;;4.24;91.05;99585.03;5258673;33;33665;-85
2021/12/06 12:31:11;;;;;;;13.23;10.00;;;;;;;4.20;90.39;99583.66;5260568;33;33603;-85
2021/12/06 12:34:14;;;;;;;17.67;10.90;;;;;;;4.07;90.82;99580.56;5261664;33;33765;-85
2021/12/06 12:37:20;;;;;;;16.15;10.40;;;;;;;4.20;91.38;99577.50;5261063;33;33969;-89
2021/12/06 12:40:26;;;;;;;14.40;9.95;;;;;;;4.22;89.75;99575.50;5257933;33;33734;-90
2021/12/06 12:43:48;;;;;;;14.60;9.57;;;;;;;4.26;89.50;99580.34;5263188;33;33959;-86
2021/12/06 12:46:53;;;;;;;14.40;10.13;;;;;;;4.40;88.11;99580.78;5267402;33;33447;-86
2021/12/06 12:50:00;;;;;;;14.18;9.13;;;;;;;4.45;88.24;99581.97;5278924;33;34849;-86
2021/12/06 12:53:14;;;;;;;13.65;9.27;;;;;;;4.36;88.46;99579.41;5274699;33;34571;-85
2021/12/06 12:56:33;;;;;;;13.25;9.23;;;;;;;4.55;87.59;99589.84;5276279;33;34584;-86
2021/12/06 12:59:45;;;;;;;13.70;8.70;;;;;;;4.60;86.45;99586.72;5277023;33;36161;-85
2021/12/06 13:02:48;;;;;;;12.85;8.45;;;;;;;4.36;87.21;99596.25;5277621;33;35387;-86
2021/12/06 13:06:26;;;;;;;14.13;9.23;;;;;;;4.23;88.28;99604.66;5276902;33;33544;-85
2021/12/06 13:09:29;;;;;;;11.68;9.00;;;;;;;4.12;88.33;99604.91;5289405;33;34871;-85
2021/12/06 13:12:32;;;;;;;12.50;8.55;;;;;;;4.23;88.35;99609.97;5280584;33;33777;-85
2021/12/06 13:19:33;;;;;;;10.73;7.65;;;;;;;4.26;87.46;99617.66;5272557;33;34385;-85
2021/12/06 13:22:46;;;;;;;14.75;8.57;;;;;;;4.24;88.30;99610.81;5280081;33;35133;-86
2021/12/06 13:26:04;;;;;;;12.18;8.00;;;;;;;4.22;89.11;99618.13;5279708;33;34150;-85
2021/12/06 13:29:14;;;;;;;11.32;7.90;;;;;;;4.23;88.14;99615.31;5287573;33;34153;-86
2021/12/06 13:32:38;;;;;;;10.55;7.20;;;;;;;4.32;87.98;99625.03;5270442;33;35211;-86
2021/12/06 13:36:00;;;;;;;12.35;8.02;;;;;;;4.21;88.13;99619.97;5282170;33;33671;-85
2021/12/06 13:39:06;;;;;;;13.02;7.28;;;;;;;4.20;88.21;99625.44;5284359;33;34944;-86
2021/12/06 13:42:13;;;;;;;11.12;7.72;;;;;;;4.14;88.02;99621.56;5287687;33;34221;-85
2021/12/06 13:45:20;;;;;;;11.55;7.60;;;;;;;4.00;89.01;99627.44;5292143;33;32843;-85
2021/12/06 13:48:33;;;;;;;13.02;7.97;;;;;;;3.82;89.57;99630.13;5280523;33;33679;-85
2021/12/06 13:51:38;;;;;;;12.02;7.40;;;;;;;3.82;90.74;99630.13;5288162;33;33932;-85
2021/12/06 13:54:44;;;;;;;9.90;6.45;;;;;;;3.71;90.32;99628.53;5287823;33;34588;-85
2021/12/06 13:57:49;;;;;;;11.98;7.72;;;;;;;3.66;90.62;99635.28;5295717;33;35522;-85
2021/12/06 14:00:52;;;;;;;10.82;6.95;;;;;;;3.57;90.50;99634.41;5285450;33;35323;-86
2021/12/06 14:03:56;;;;;;;12.32;6.80;;;;;;;3.51;90.87;99642.97;5289712;33;33703;-86
2021/12/06 14:07:01;;;;;;;12.45;7.30;;;;;;;3.39;91.21;99653.84;5276650;33;34068;-89
2021/12/06 14:10:05;;;;;;;10.57;6.93;;;;;;;3.31;91.09;99661.72;5270372;33;33872;-90
2021/12/06 14:13:08;;;;;;;11.07;7.00;;;;;;;3.17;91.52;99662.22;5285284;33;34519;-87
2021/12/06 14:16:13;;;;;;;8.48;6.03;;;;;;;3.25;91.46;99648.19;5282654;33;34064;-86
2021/12/06 14:19:16;;;;;;;11.23;6.35;;;;;;;3.22;90.94;99659.97;5281920;33;33986;-86
2021/12/06 14:22:23;;;;;;;10.77;6.22;;;;;;;3.09;90.22;99652.31;5287063;33;34163;-86
2021/12/06 14:25:25;;;;;;;11.63;6.30;;;;;;;3.03;90.15;99655.56;5285121;33;33971;-85
2021/12/06 14:28:34;;;;;;;9.70;5.97;;;;;;;3.06;89.38;99663.25;5282406;33;33938;-85
2021/12/06 14:31:40;;;;;;;9.15;6.72;;;;;;;3.03;90.55;99665.37;5288996;33;33870;-84
2021/12/06 14:34:43;;;;;;;9.40;6.15;;;;;;;2.92;91.31;99674.34;5275102;33;33717;-84
2021/12/06 14:37:46;;;;;;;11.45;7.18;;;;;;;2.86;92.56;99674.94;5283210;33;35235;-85
2021/12/06 14:40:50;;;;;;;8.85;6.35;;;;;;;2.83;93.25;99677.91;5272841;33;34927;-85
2021/12/06 14:43:52;;;;;;;9.57;6.28;;;;;;;2.67;93.49;99679.34;5276928;33;34286;-85
2021/12/06 14:46:56;;;;;;;8.45;6.35;;;;;;;2.75;93.04;99672.47;5272637;33;35190;-84
2021/12/06 14:50:23;;;;;;;11.95;6.80;;;;;;;2.68;92.54;99669.53;5279160;33;34043;-85
2021/12/06 14:56:51;;;;;;;11.85;7.20;;;;;;;2.75;93.13;99678.63;5275305;33;33948;-84
2021/12/06 14:59:54;;;;;;;8.38;6.62;;;;;;;2.65;93.43;99681.31;5279927;33;34026;-84
2021/12/06 15:02:58;;;;;;;12.20;6.75;;;;;;;2.52;95.41;99679.97;5276393;33;33962;-85
2021/12/06 15:06:03;;;;;;;10.75;7.15;;;;;;;2.44;96.22;99685.97;5275772;33;33948;-84
2021/12/06 15:09:09;;;;;;;10.75;6.55;;;;;;;2.58;94.35;99680.22;5277913;33;33876;-85
2021/12/06 15:12:15;;;;;;;10.43;6.75;;;;;;;2.56;94.18;99684.00;5275758;33;33872;-83
2021/12/06 15:15:21;;;;;;;13.07;7.82;;;;;;;2.43;95.00;99687.81;5281348;33;35460;-84
2021/12/06 15:18:28;;;;;;;14.80;7.72;;;;;;;2.39;95.25;99699.66;5277582;33;33963;-84
2021/12/06 15:21:31;;;;;;;13.38;7.32;;;;;;;2.50;94.71;99691.56;5277671;33;33516;-84
2021/12/06 15:24:35;;;;;;;12.90;7.90;;;;;;;2.40;94.41;99692.53;5280087;33;34448;-84
2021/12/06 15:27:41;;;;;;;14.93;7.97;;;;;;;2.46;94.09;99692.00;5289389;33;34300;-84
2021/12/06 15:30:44;;;;;;;13.93;8.00;;;;;;;2.59;92.50;99692.50;5283020;33;34161;-88
2021/12/06 15:33:49;;;;;;;14.35;8.52;;;;;;;2.62;92.08;99689.56;5280540;33;34363;-88
2021/12/06 15:36:53;;;;;;;14.00;9.15;;;;;;;2.63;91.55;99695.72;5275862;33;34528;-84
2021/12/06 15:39:56;;;;;;;16.98;9.13;;;;;;;2.57;90.76;99699.78;5274233;33;34261;-85
2021/12/06 15:43:06;;;;;;;15.18;8.60;;;;;;;2.59;90.71;99702.31;5276125;33;33947;-84
2021/12/06 15:46:12;;;;;;;14.75;8.80;;;;;;;2.48;89.89;99705.94;5277137;33;34324;-84
2021/12/06 15:49:16;;;;;;;17.45;10.48;;;;;;;2.38;89.50;99708.62;5286262;33;33496;-84
2021/12/06 15:52:25;;;;;;;18.92;9.70;;;;;;;2.44;89.17;99707.22;5271600;33;33542;-84
2021/12/06 15:55:34;;;;;;;17.00;9.68;;;;;;;2.41;88.61;99707.50;5277035;33;33833;-84
2021/12/06 15:58:37;;;;;;;17.52;10.02;;;;;;;2.39;88.59;99712.13;5271757;33;34385;-84
2021/12/06 16:01:45;;;;;;;18.87;11.52;;;;;;;2.37;88.61;99719.37;5271362;33;34580;-84
2021/12/06 16:04:49;;;;;;;19.90;10.60;;;;;;;2.28;88.43;99723.72;5281000;33;35228;-84
2021/12/06 16:08:00;;;;;;;19.65;11.27;;;;;;;2.26;88.40;99726.53;5285420;33;34148;-84
2021/12/06 16:11:06;;;;;;;17.70;10.02;;;;;;;2.23;88.67;99729.47;5289093;33;34173;-84
2021/12/06 16:14:11;;;;;;;19.77;11.07;;;;;;;2.18;89.02;99738.84;5288228;33;33886;-84
2021/12/06 16:17:13;;;;;;;20.55;11.25;;;;;;;2.15;89.62;99755.06;5289127;33;34611;-84
2021/12/06 16:20:16;;;;;;;22.33;11.38;;;;;;;2.25;88.06;99756.75;5288851;33;34639;-84
2021/12/06 16:23:26;;;;;;;18.70;11.57;;;;;;;2.22;88.09;99757.03;5288742;33;33986;-84
2021/12/06 16:26:36;;;;;;;19.42;11.23;;;;;;;2.27;87.92;99765.37;5289187;33;34097;-84
2021/12/06 16:29:46;;;;;;;21.12;11.95;;;;;;;2.30;87.58;99774.06;5289774;33;34282;-83
2021/12/06 16:32:48;;;;;;;22.05;11.57;;;;;;;2.49;87.73;99782.88;5289141;33;33829;-84
2021/12/06 16:35:51;;;;;;;21.70;12.05;;;;;;;2.43;87.45;99787.91;5289906;33;34021;-84
2021/12/06 16:39:16;;;;;;;22.87;11.55;;;;;;;2.40;87.48;99783.72;5288873;33;34556;-84
2021/12/06 16:42:38;;;;;;;21.95;11.40;;;;;;;2.38;86.96;99787.50;5240163;33;32455;-88
2021/12/06 16:45:41;;;;;;;22.80;12.13;;;;;;;2.34;87.58;99797.56;5296787;33;33946;-84
2021/12/06 16:48:53;;;;;;;22.17;12.63;;;;;;;2.35;87.66;99801.06;5298514;33;34369;-84
2021/12/06 16:52:15;;;;;;;22.08;11.95;;;;;;;2.37;86.18;99813.22;5297442;33;34279;-84
